sensor_id;sensor_type;location;lat;lon;timestamp;P1;durP1;ratioP1;P2;durP2;ratioP2
10902;SDS011;5504;47.312;11.060;2024-03-02T00:01:29;28.87;;;19.50;;
10902;SDS011;5504;47.312;11.060;2024-03-02T00:03:55;31.27;;;19.00;;
10902;SDS011;5504;47.312;11.060;2024-03-02T00:06:21;28.47;;;19.10;;
10902;SDS011;5504;47.312;11.060;2024-03-02T00:08:47;29.57;;;20.00;;
10902;SDS011;5504;47.312;11.060;2024-03-02T00:11:12;33.47;;;21.57;;
10902;SDS011;5504;47.312;11.060;2024-03-02T00:13:40;33.00;;;20.87;;
10902;SDS011;5504;47.312;11.060;2024-03-02T00:16:06;33.13;;;20.43;;
10902;SDS011;5504;47.312;11.060;2024-03-02T00:18:32;30.23;;;20.17;;
10902;SDS011;5504;47.312;11.060;2024-03-02T00:20:59;30.63;;;19.97;;
10902;SDS011;5504;47.312;11.060;2024-03-02T00:23:27;33.93;;;20.47;;
10902;SDS011;5504;47.312;11.060;2024-03-02T00:25:56;33.10;;;20.67;;
10902;SDS011;5504;47.312;11.060;2024-03-02T00:28:24;31.77;;;20.27;;
10902;SDS011;5504;47.312;11.060;2024-03-02T00:33:23;33.50;;;20.73;;
10902;SDS011;5504;47.312;11.060;2024-03-02T00:35:50;29.07;;;19.83;;
10902;SDS011;5504;47.312;11.060;2024-03-02T00:38:17;33.37;;;21.57;;
10902;SDS011;5504;47.312;11.060;2024-03-02T00:40:43;30.23;;;20.67;;
10902;SDS011;5504;47.312;11.060;2024-03-02T00:45:50;32.10;;;20.33;;
10902;SDS011;5504;47.312;11.060;2024-03-02T00:48:16;34.17;;;21.33;;
10902;SDS011;5504;47.312;11.060;2024-03-02T00:50:42;33.97;;;22.60;;
10902;SDS011;5504;47.312;11.060;2024-03-02T00:53:11;34.33;;;22.07;;
10902;SDS011;5504;47.312;11.060;2024-03-02T00:55:37;35.33;;;21.53;;
10902;SDS011;5504;47.312;11.060;2024-03-02T00:58:04;35.53;;;21.80;;
10902;SDS011;5504;47.312;11.060;2024-03-02T01:00:30;32.67;;;21.63;;
10902;SDS011;5504;47.312;11.060;2024-03-02T01:02:56;35.57;;;21.60;;
10902;SDS011;5504;47.312;11.060;2024-03-02T01:05:21;31.83;;;20.80;;
10902;SDS011;5504;47.312;11.060;2024-03-02T01:07:47;32.73;;;20.77;;
10902;SDS011;5504;47.312;11.060;2024-03-02T01:10:13;31.70;;;20.60;;
10902;SDS011;5504;47.312;11.060;2024-03-02T01:12:39;34.87;;;22.03;;
10902;SDS011;5504;47.312;11.060;2024-03-02T01:15:04;33.30;;;20.97;;
10902;SDS011;5504;47.312;11.060;2024-03-02T01:17:33;30.17;;;20.90;;
10902;SDS011;5504;47.312;11.060;2024-03-02T01:19:58;33.30;;;20.77;;
10902;SDS011;5504;47.312;11.060;2024-03-02T01:22:24;32.67;;;21.07;;
10902;SDS011;5504;47.312;11.060;2024-03-02T01:24:50;31.77;;;21.13;;
10902;SDS011;5504;47.312;11.060;2024-03-02T01:27:16;30.10;;;19.77;;
10902;SDS011;5504;47.312;11.060;2024-03-02T01:29:42;32.67;;;20.80;;
10902;SDS011;5504;47.312;11.060;2024-03-02T01:32:08;30.10;;;20.17;;
10902;SDS011;5504;47.312;11.060;2024-03-02T01:34:33;33.60;;;21.27;;
10902;SDS011;5504;47.312;11.060;2024-03-02T01:36:59;32.63;;;21.70;;
10902;SDS011;5504;47.312;11.060;2024-03-02T01:39:25;33.60;;;20.63;;
10902;SDS011;5504;47.312;11.060;2024-03-02T01:41:51;35.47;;;21.67;;
10902;SDS011;5504;47.312;11.060;2024-03-02T01:44:16;37.33;;;23.73;;
10902;SDS011;5504;47.312;11.060;2024-03-02T01:46:42;34.73;;;21.97;;
10902;SDS011;5504;47.312;11.060;2024-03-02T01:49:08;36.43;;;23.80;;
10902;SDS011;5504;47.312;11.060;2024-03-02T01:51:34;35.27;;;23.33;;
10902;SDS011;5504;47.312;11.060;2024-03-02T01:53:59;36.73;;;23.17;;
10902;SDS011;5504;47.312;11.060;2024-03-02T01:56:25;35.07;;;22.33;;
10902;SDS011;5504;47.312;11.060;2024-03-02T01:58:51;37.43;;;22.93;;
10902;SDS011;5504;47.312;11.060;2024-03-02T02:01:17;34.37;;;21.80;;
10902;SDS011;5504;47.312;11.060;2024-03-02T02:03:43;34.70;;;22.07;;
10902;SDS011;5504;47.312;11.060;2024-03-02T02:06:09;32.37;;;21.13;;
10902;SDS011;5504;47.312;11.060;2024-03-02T02:08:36;34.77;;;22.17;;
10902;SDS011;5504;47.312;11.060;2024-03-02T02:11:02;34.10;;;21.43;;
10902;SDS011;5504;47.312;11.060;2024-03-02T02:13:30;28.50;;;18.73;;
10902;SDS011;5504;47.312;11.060;2024-03-02T02:15:55;27.47;;;18.50;;
10902;SDS011;5504;47.312;11.060;2024-03-02T02:18:30;30.93;;;20.33;;
10902;SDS011;5504;47.312;11.060;2024-03-02T02:20:56;30.67;;;20.53;;
10902;SDS011;5504;47.312;11.060;2024-03-02T02:23:21;32.77;;;21.23;;
10902;SDS011;5504;47.312;11.060;2024-03-02T02:25:47;30.90;;;22.23;;
10902;SDS011;5504;47.312;11.060;2024-03-02T02:28:13;31.60;;;19.77;;
10902;SDS011;5504;47.312;11.060;2024-03-02T02:30:38;31.63;;;20.70;;
10902;SDS011;5504;47.312;11.060;2024-03-02T02:33:04;35.50;;;21.73;;
10902;SDS011;5504;47.312;11.060;2024-03-02T02:35:30;34.50;;;21.93;;
10902;SDS011;5504;47.312;11.060;2024-03-02T02:37:56;33.80;;;21.87;;
10902;SDS011;5504;47.312;11.060;2024-03-02T02:40:23;33.60;;;20.27;;
10902;SDS011;5504;47.312;11.060;2024-03-02T02:42:49;33.07;;;20.70;;
10902;SDS011;5504;47.312;11.060;2024-03-02T02:45:17;33.83;;;21.20;;
10902;SDS011;5504;47.312;11.060;2024-03-02T02:47:43;31.53;;;19.30;;
10902;SDS011;5504;47.312;11.060;2024-03-02T02:50:10;28.40;;;19.03;;
10902;SDS011;5504;47.312;11.060;2024-03-02T02:52:37;32.50;;;20.03;;
10902;SDS011;5504;47.312;11.060;2024-03-02T02:55:05;29.37;;;19.07;;
10902;SDS011;5504;47.312;11.060;2024-03-02T02:57:32;30.53;;;20.03;;
10902;SDS011;5504;47.312;11.060;2024-03-02T03:00:04;33.47;;;21.50;;
10902;SDS011;5504;47.312;11.060;2024-03-02T03:02:45;34.23;;;21.73;;
10902;SDS011;5504;47.312;11.060;2024-03-02T03:05:12;31.50;;;19.73;;
10902;SDS011;5504;47.312;11.060;2024-03-02T03:07:39;32.00;;;20.77;;
10902;SDS011;5504;47.312;11.060;2024-03-02T03:10:06;34.00;;;21.77;;
10902;SDS011;5504;47.312;11.060;2024-03-02T03:12:33;31.70;;;20.90;;
10902;SDS011;5504;47.312;11.060;2024-03-02T03:15:00;32.37;;;20.50;;
10902;SDS011;5504;47.312;11.060;2024-03-02T03:17:26;33.07;;;21.47;;
10902;SDS011;5504;47.312;11.060;2024-03-02T03:19:52;34.30;;;21.27;;
10902;SDS011;5504;47.312;11.060;2024-03-02T03:22:18;31.87;;;20.10;;
10902;SDS011;5504;47.312;11.060;2024-03-02T03:24:44;31.60;;;19.67;;
10902;SDS011;5504;47.312;11.060;2024-03-02T03:27:10;33.83;;;20.93;;
10902;SDS011;5504;47.312;11.060;2024-03-02T03:29:38;28.60;;;18.87;;
10902;SDS011;5504;47.312;11.060;2024-03-02T03:32:05;30.37;;;18.97;;
10902;SDS011;5504;47.312;11.060;2024-03-02T03:34:34;32.70;;;19.57;;
10902;SDS011;5504;47.312;11.060;2024-03-02T03:37:00;29.53;;;18.87;;
10902;SDS011;5504;47.312;11.060;2024-03-02T03:39:27;31.30;;;19.37;;
10902;SDS011;5504;47.312;11.060;2024-03-02T03:41:53;29.93;;;19.17;;
10902;SDS011;5504;47.312;11.060;2024-03-02T03:44:19;29.17;;;19.00;;
10902;SDS011;5504;47.312;11.060;2024-03-02T03:46:45;29.90;;;19.37;;
10902;SDS011;5504;47.312;11.060;2024-03-02T03:49:10;29.47;;;18.67;;
10902;SDS011;5504;47.312;11.060;2024-03-02T03:51:36;30.30;;;19.37;;
10902;SDS011;5504;47.312;11.060;2024-03-02T03:54:02;31.83;;;20.33;;
10902;SDS011;5504;47.312;11.060;2024-03-02T03:56:28;31.13;;;19.27;;
10902;SDS011;5504;47.312;11.060;2024-03-02T03:58:53;29.00;;;19.37;;
10902;SDS011;5504;47.312;11.060;2024-03-02T04:01:19;28.33;;;19.13;;
10902;SDS011;5504;47.312;11.060;2024-03-02T04:03:47;28.93;;;18.70;;
10902;SDS011;5504;47.312;11.060;2024-03-02T04:06:13;30.47;;;18.40;;
10902;SDS011;5504;47.312;11.060;2024-03-02T04:08:39;29.67;;;17.90;;
10902;SDS011;5504;47.312;11.060;2024-03-02T04:11:06;30.93;;;18.83;;
10902;SDS011;5504;47.312;11.060;2024-03-02T04:13:33;28.73;;;18.37;;
10902;SDS011;5504;47.312;11.060;2024-03-02T04:15:58;30.23;;;19.10;;
10902;SDS011;5504;47.312;11.060;2024-03-02T04:18:24;32.67;;;19.40;;
10902;SDS011;5504;47.312;11.060;2024-03-02T04:20:50;28.17;;;18.07;;
10902;SDS011;5504;47.312;11.060;2024-03-02T04:23:16;31.50;;;19.23;;
10902;SDS011;5504;47.312;11.060;2024-03-02T04:25:41;29.77;;;18.63;;
10902;SDS011;5504;47.312;11.060;2024-03-02T04:28:07;27.60;;;18.63;;
10902;SDS011;5504;47.312;11.060;2024-03-02T04:30:33;27.60;;;17.87;;
10902;SDS011;5504;47.312;11.060;2024-03-02T04:32:59;29.13;;;18.50;;
10902;SDS011;5504;47.312;11.060;2024-03-02T04:35:24;27.37;;;17.77;;
10902;SDS011;5504;47.312;11.060;2024-03-02T04:37:50;25.93;;;16.67;;
10902;SDS011;5504;47.312;11.060;2024-03-02T04:40:16;25.00;;;16.50;;
10902;SDS011;5504;47.312;11.060;2024-03-02T04:42:42;23.10;;;15.70;;
10902;SDS011;5504;47.312;11.060;2024-03-02T04:45:08;23.50;;;14.60;;
10902;SDS011;5504;47.312;11.060;2024-03-02T04:47:34;19.97;;;14.27;;
10902;SDS011;5504;47.312;11.060;2024-03-02T04:50:00;24.57;;;15.33;;
10902;SDS011;5504;47.312;11.060;2024-03-02T04:52:25;25.33;;;15.97;;
10902;SDS011;5504;47.312;11.060;2024-03-02T04:54:51;25.53;;;15.57;;
10902;SDS011;5504;47.312;11.060;2024-03-02T04:57:42;22.57;;;15.03;;
10902;SDS011;5504;47.312;11.060;2024-03-02T05:00:08;23.87;;;15.40;;
10902;SDS011;5504;47.312;11.060;2024-03-02T05:02:35;24.67;;;15.37;;
10902;SDS011;5504;47.312;11.060;2024-03-02T05:05:01;22.97;;;15.33;;
10902;SDS011;5504;47.312;11.060;2024-03-02T05:07:27;22.97;;;15.27;;
10902;SDS011;5504;47.312;11.060;2024-03-02T05:09:53;25.37;;;15.77;;
10902;SDS011;5504;47.312;11.060;2024-03-02T05:12:19;26.03;;;16.43;;
10902;SDS011;5504;47.312;11.060;2024-03-02T05:15:20;27.43;;;17.90;;
10902;SDS011;5504;47.312;11.060;2024-03-02T05:17:46;28.53;;;18.00;;
10902;SDS011;5504;47.312;11.060;2024-03-02T05:20:12;28.63;;;17.97;;
10902;SDS011;5504;47.312;11.060;2024-03-02T05:22:38;25.30;;;16.30;;
10902;SDS011;5504;47.312;11.060;2024-03-02T05:25:04;25.33;;;16.53;;
10902;SDS011;5504;47.312;11.060;2024-03-02T05:27:31;26.33;;;15.87;;
10902;SDS011;5504;47.312;11.060;2024-03-02T05:29:59;24.43;;;16.40;;
10902;SDS011;5504;47.312;11.060;2024-03-02T05:32:25;25.17;;;16.03;;
10902;SDS011;5504;47.312;11.060;2024-03-02T05:34:51;23.53;;;15.87;;
10902;SDS011;5504;47.312;11.060;2024-03-02T05:37:17;24.87;;;15.53;;
10902;SDS011;5504;47.312;11.060;2024-03-02T05:39:43;27.10;;;16.47;;
10902;SDS011;5504;47.312;11.060;2024-03-02T05:42:09;26.23;;;16.57;;
10902;SDS011;5504;47.312;11.060;2024-03-02T05:44:35;27.87;;;17.90;;
10902;SDS011;5504;47.312;11.060;2024-03-02T05:47:01;24.43;;;16.43;;
10902;SDS011;5504;47.312;11.060;2024-03-02T05:49:28;28.90;;;17.10;;
10902;SDS011;5504;47.312;11.060;2024-03-02T05:51:54;28.33;;;17.53;;
10902;SDS011;5504;47.312;11.060;2024-03-02T05:54:19;27.80;;;17.77;;
10902;SDS011;5504;47.312;11.060;2024-03-02T05:56:45;26.73;;;17.53;;
10902;SDS011;5504;47.312;11.060;2024-03-02T05:59:11;28.13;;;18.17;;
10902;SDS011;5504;47.312;11.060;2024-03-02T06:01:44;26.13;;;16.60;;
10902;SDS011;5504;47.312;11.060;2024-03-02T06:04:19;25.57;;;15.47;;
10902;SDS011;5504;47.312;11.060;2024-03-02T06:06:46;21.80;;;13.97;;
10902;SDS011;5504;47.312;11.060;2024-03-02T06:09:11;22.50;;;15.23;;
10902;SDS011;5504;47.312;11.060;2024-03-02T06:11:38;26.50;;;15.90;;
10902;SDS011;5504;47.312;11.060;2024-03-02T06:14:05;25.27;;;16.37;;
10902;SDS011;5504;47.312;11.060;2024-03-02T06:16:32;28.97;;;17.33;;
10902;SDS011;5504;47.312;11.060;2024-03-02T06:18:59;25.63;;;16.33;;
10902;SDS011;5504;47.312;11.060;2024-03-02T06:21:25;24.80;;;16.27;;
10902;SDS011;5504;47.312;11.060;2024-03-02T06:23:51;24.83;;;16.63;;
10902;SDS011;5504;47.312;11.060;2024-03-02T06:26:17;25.33;;;15.90;;
10902;SDS011;5504;47.312;11.060;2024-03-02T06:28:43;25.53;;;16.20;;
10902;SDS011;5504;47.312;11.060;2024-03-02T06:31:09;25.80;;;16.23;;
10902;SDS011;5504;47.312;11.060;2024-03-02T06:33:35;25.50;;;16.83;;
10902;SDS011;5504;47.312;11.060;2024-03-02T06:36:01;23.77;;;16.30;;
10902;SDS011;5504;47.312;11.060;2024-03-02T06:38:27;27.43;;;16.10;;
10902;SDS011;5504;47.312;11.060;2024-03-02T06:40:53;24.70;;;15.53;;
10902;SDS011;5504;47.312;11.060;2024-03-02T06:43:20;24.03;;;16.20;;
10902;SDS011;5504;47.312;11.060;2024-03-02T06:45:52;28.20;;;16.87;;
10902;SDS011;5504;47.312;11.060;2024-03-02T06:48:18;26.23;;;16.50;;
10902;SDS011;5504;47.312;11.060;2024-03-02T06:50:48;24.17;;;16.10;;
10902;SDS011;5504;47.312;11.060;2024-03-02T06:53:15;24.57;;;16.27;;
10902;SDS011;5504;47.312;11.060;2024-03-02T06:55:45;24.00;;;15.90;;
10902;SDS011;5504;47.312;11.060;2024-03-02T06:58:12;26.20;;;16.50;;
10902;SDS011;5504;47.312;11.060;2024-03-02T07:00:41;32.13;;;18.70;;
10902;SDS011;5504;47.312;11.060;2024-03-02T07:03:07;32.50;;;19.50;;
10902;SDS011;5504;47.312;11.060;2024-03-02T07:05:33;34.27;;;18.80;;
10902;SDS011;5504;47.312;11.060;2024-03-02T07:07:59;26.53;;;17.20;;
10902;SDS011;5504;47.312;11.060;2024-03-02T07:10:26;26.50;;;17.43;;
10902;SDS011;5504;47.312;11.060;2024-03-02T07:12:52;26.07;;;17.20;;
10902;SDS011;5504;47.312;11.060;2024-03-02T07:15:18;24.80;;;16.00;;
10902;SDS011;5504;47.312;11.060;2024-03-02T07:17:49;26.73;;;16.30;;
10902;SDS011;5504;47.312;11.060;2024-03-02T07:20:15;28.73;;;18.27;;
10902;SDS011;5504;47.312;11.060;2024-03-02T07:22:40;36.67;;;25.43;;
10902;SDS011;5504;47.312;11.060;2024-03-02T07:25:06;30.90;;;20.53;;
10902;SDS011;5504;47.312;11.060;2024-03-02T07:27:32;27.13;;;18.47;;
10902;SDS011;5504;47.312;11.060;2024-03-02T07:30:00;30.00;;;18.73;;
10902;SDS011;5504;47.312;11.060;2024-03-02T07:32:29;28.73;;;19.00;;
10902;SDS011;5504;47.312;11.060;2024-03-02T07:34:54;28.60;;;19.07;;
10902;SDS011;5504;47.312;11.060;2024-03-02T07:37:21;26.03;;;17.93;;
10902;SDS011;5504;47.312;11.060;2024-03-02T07:39:47;32.13;;;20.07;;
10902;SDS011;5504;47.312;11.060;2024-03-02T07:42:13;30.30;;;21.97;;
10902;SDS011;5504;47.312;11.060;2024-03-02T07:44:39;28.77;;;19.87;;
10902;SDS011;5504;47.312;11.060;2024-03-02T07:47:05;30.30;;;21.47;;
10902;SDS011;5504;47.312;11.060;2024-03-02T07:49:31;34.97;;;23.97;;
10902;SDS011;5504;47.312;11.060;2024-03-02T07:51:57;34.63;;;22.57;;
10902;SDS011;5504;47.312;11.060;2024-03-02T07:54:23;33.50;;;23.33;;
10902;SDS011;5504;47.312;11.060;2024-03-02T07:56:49;31.60;;;21.97;;
10902;SDS011;5504;47.312;11.060;2024-03-02T07:59:15;34.77;;;23.23;;
10902;SDS011;5504;47.312;11.060;2024-03-02T08:01:41;31.90;;;22.07;;
10902;SDS011;5504;47.312;11.060;2024-03-02T08:04:06;35.27;;;23.03;;
10902;SDS011;5504;47.312;11.060;2024-03-02T08:06:32;30.97;;;22.13;;
10902;SDS011;5504;47.312;11.060;2024-03-02T08:08:59;33.83;;;21.80;;
10902;SDS011;5504;47.312;11.060;2024-03-02T08:11:25;31.93;;;21.40;;
10902;SDS011;5504;47.312;11.060;2024-03-02T08:13:56;32.50;;;21.50;;
10902;SDS011;5504;47.312;11.060;2024-03-02T08:16:22;35.47;;;22.53;;
10902;SDS011;5504;47.312;11.060;2024-03-02T08:18:51;32.20;;;22.07;;
10902;SDS011;5504;47.312;11.060;2024-03-02T08:21:17;30.20;;;21.33;;
10902;SDS011;5504;47.312;11.060;2024-03-02T08:23:43;31.67;;;21.33;;
10902;SDS011;5504;47.312;11.060;2024-03-02T08:26:10;31.73;;;21.20;;
10902;SDS011;5504;47.312;11.060;2024-03-02T08:28:36;28.53;;;20.33;;
10902;SDS011;5504;47.312;11.060;2024-03-02T08:31:02;29.70;;;20.20;;
10902;SDS011;5504;47.312;11.060;2024-03-02T08:33:29;26.97;;;19.10;;
10902;SDS011;5504;47.312;11.060;2024-03-02T08:35:55;26.23;;;18.80;;
10902;SDS011;5504;47.312;11.060;2024-03-02T08:38:21;32.90;;;22.07;;
10902;SDS011;5504;47.312;11.060;2024-03-02T08:40:47;27.33;;;19.67;;
10902;SDS011;5504;47.312;11.060;2024-03-02T08:43:12;26.63;;;19.53;;
10902;SDS011;5504;47.312;11.060;2024-03-02T08:45:39;24.70;;;18.17;;
10902;SDS011;5504;47.312;11.060;2024-03-02T08:48:08;23.30;;;17.03;;
10902;SDS011;5504;47.312;11.060;2024-03-02T08:50:34;23.87;;;17.40;;
10902;SDS011;5504;47.312;11.060;2024-03-02T08:53:00;24.10;;;16.57;;
10902;SDS011;5504;47.312;11.060;2024-03-02T08:55:26;22.87;;;16.37;;
10902;SDS011;5504;47.312;11.060;2024-03-02T08:57:52;23.37;;;16.27;;
10902;SDS011;5504;47.312;11.060;2024-03-02T09:00:18;20.17;;;14.80;;
10902;SDS011;5504;47.312;11.060;2024-03-02T09:02:44;21.07;;;15.17;;
10902;SDS011;5504;47.312;11.060;2024-03-02T09:05:10;20.70;;;15.47;;
10902;SDS011;5504;47.312;11.060;2024-03-02T09:07:36;18.53;;;14.10;;
10902;SDS011;5504;47.312;11.060;2024-03-02T09:10:04;20.50;;;13.83;;
10902;SDS011;5504;47.312;11.060;2024-03-02T09:12:31;20.10;;;13.80;;
10902;SDS011;5504;47.312;11.060;2024-03-02T09:14:57;18.03;;;13.80;;
10902;SDS011;5504;47.312;11.060;2024-03-02T09:17:23;20.47;;;14.60;;
10902;SDS011;5504;47.312;11.060;2024-03-02T09:19:49;19.77;;;14.53;;
10902;SDS011;5504;47.312;11.060;2024-03-02T09:22:18;20.87;;;15.20;;
10902;SDS011;5504;47.312;11.060;2024-03-02T09:24:44;21.27;;;14.77;;
10902;SDS011;5504;47.312;11.060;2024-03-02T09:27:10;19.23;;;14.47;;
10902;SDS011;5504;47.312;11.060;2024-03-02T09:29:36;19.23;;;14.67;;
10902;SDS011;5504;47.312;11.060;2024-03-02T09:32:01;21.53;;;15.93;;
10902;SDS011;5504;47.312;11.060;2024-03-02T09:34:27;21.17;;;14.90;;
10902;SDS011;5504;47.312;11.060;2024-03-02T09:36:53;20.07;;;14.27;;
10902;SDS011;5504;47.312;11.060;2024-03-02T09:39:19;17.63;;;13.23;;
10902;SDS011;5504;47.312;11.060;2024-03-02T09:41:45;16.80;;;12.73;;
10902;SDS011;5504;47.312;11.060;2024-03-02T09:44:12;16.30;;;11.83;;
10902;SDS011;5504;47.312;11.060;2024-03-02T09:46:39;15.97;;;11.63;;
10902;SDS011;5504;47.312;11.060;2024-03-02T09:49:05;15.13;;;12.07;;
10902;SDS011;5504;47.312;11.060;2024-03-02T09:51:32;14.43;;;11.33;;
10902;SDS011;5504;47.312;11.060;2024-03-02T09:53:58;15.70;;;11.50;;
10902;SDS011;5504;47.312;11.060;2024-03-02T09:56:26;12.67;;;9.80;;
10902;SDS011;5504;47.312;11.060;2024-03-02T09:58:52;13.43;;;10.17;;
10902;SDS011;5504;47.312;11.060;2024-03-02T10:01:18;12.27;;;9.00;;
10902;SDS011;5504;47.312;11.060;2024-03-02T10:03:44;13.13;;;9.93;;
10902;SDS011;5504;47.312;11.060;2024-03-02T10:06:24;11.17;;;8.70;;
10902;SDS011;5504;47.312;11.060;2024-03-02T10:08:50;9.17;;;8.03;;
10902;SDS011;5504;47.312;11.060;2024-03-02T10:11:27;10.30;;;7.90;;
10902;SDS011;5504;47.312;11.060;2024-03-02T10:16:39;9.53;;;7.33;;
10902;SDS011;5504;47.312;11.060;2024-03-02T10:19:19;8.47;;;6.40;;
10902;SDS011;5504;47.312;11.060;2024-03-02T10:21:49;7.50;;;6.07;;
10902;SDS011;5504;47.312;11.060;2024-03-02T10:24:16;7.63;;;6.00;;
10902;SDS011;5504;47.312;11.060;2024-03-02T10:26:42;8.00;;;6.90;;
10902;SDS011;5504;47.312;11.060;2024-03-02T10:29:08;8.10;;;6.90;;
10902;SDS011;5504;47.312;11.060;2024-03-02T10:31:36;8.70;;;7.07;;
10902;SDS011;5504;47.312;11.060;2024-03-02T10:34:10;10.20;;;8.20;;
10902;SDS011;5504;47.312;11.060;2024-03-02T10:36:36;10.63;;;7.83;;
10902;SDS011;5504;47.312;11.060;2024-03-02T10:39:05;8.93;;;7.20;;
10902;SDS011;5504;47.312;11.060;2024-03-02T10:41:33;9.00;;;7.23;;
10902;SDS011;5504;47.312;11.060;2024-03-02T10:44:04;8.53;;;6.97;;
10902;SDS011;5504;47.312;11.060;2024-03-02T10:46:32;8.90;;;6.70;;
10902;SDS011;5504;47.312;11.060;2024-03-02T10:49:01;8.63;;;6.47;;
10902;SDS011;5504;47.312;11.060;2024-03-02T10:51:29;6.83;;;5.70;;
10902;SDS011;5504;47.312;11.060;2024-03-02T10:54:01;7.80;;;5.30;;
10902;SDS011;5504;47.312;11.060;2024-03-02T10:59:06;6.67;;;5.10;;
10902;SDS011;5504;47.312;11.060;2024-03-02T11:01:36;6.83;;;5.20;;
10902;SDS011;5504;47.312;11.060;2024-03-02T11:04:04;5.83;;;4.60;;
10902;SDS011;5504;47.312;11.060;2024-03-02T11:06:33;4.13;;;3.50;;
10902;SDS011;5504;47.312;11.060;2024-03-02T11:09:05;3.97;;;3.20;;
10902;SDS011;5504;47.312;11.060;2024-03-02T11:11:40;3.33;;;2.53;;
10902;SDS011;5504;47.312;11.060;2024-03-02T11:14:10;3.53;;;2.67;;
10902;SDS011;5504;47.312;11.060;2024-03-02T11:16:40;3.90;;;2.60;;
10902;SDS011;5504;47.312;11.060;2024-03-02T11:19:10;3.00;;;2.00;;
10902;SDS011;5504;47.312;11.060;2024-03-02T11:21:40;3.00;;;2.70;;
10902;SDS011;5504;47.312;11.060;2024-03-02T11:26:48;2.17;;;1.90;;
10902;SDS011;5504;47.312;11.060;2024-03-02T11:32:02;4.40;;;2.83;;
10902;SDS011;5504;47.312;11.060;2024-03-02T11:34:32;4.85;;;3.03;;
10902;SDS011;5504;47.312;11.060;2024-03-02T11:36:59;2.20;;;2.00;;
10902;SDS011;5504;47.312;11.060;2024-03-02T11:39:27;2.25;;;2.05;;
10902;SDS011;5504;47.312;11.060;2024-03-02T11:41:54;3.85;;;1.90;;
10902;SDS011;5504;47.312;11.060;2024-03-02T11:44:21;2.67;;;2.08;;
10902;SDS011;5504;47.312;11.060;2024-03-02T11:46:51;2.08;;;1.70;;
10902;SDS011;5504;47.312;11.060;2024-03-02T11:49:40;1.50;;;1.10;;
10902;SDS011;5504;47.312;11.060;2024-03-02T11:52:04;3.05;;;2.33;;
10902;SDS011;5504;47.312;11.060;2024-03-02T11:54:34;1.45;;;1.30;;
10902;SDS011;5504;47.312;11.060;2024-03-02T11:57:04;1.13;;;1.00;;
10902;SDS011;5504;47.312;11.060;2024-03-02T11:59:31;2.03;;;1.10;;
10902;SDS011;5504;47.312;11.060;2024-03-02T12:01:57;0.80;;;0.80;;
10902;SDS011;5504;47.312;11.060;2024-03-02T12:04:24;1.20;;;1.05;;
10902;SDS011;5504;47.312;11.060;2024-03-02T12:06:54;1.10;;;1.00;;
10902;SDS011;5504;47.312;11.060;2024-03-02T12:09:21;1.20;;;1.10;;
10902;SDS011;5504;47.312;11.060;2024-03-02T12:11:47;1.20;;;1.10;;
10902;SDS011;5504;47.312;11.060;2024-03-02T12:14:13;1.13;;;0.90;;
10902;SDS011;5504;47.312;11.060;2024-03-02T12:16:39;0.90;;;0.90;;
10902;SDS011;5504;47.312;11.060;2024-03-02T12:19:08;1.67;;;1.02;;
10902;SDS011;5504;47.312;11.060;2024-03-02T12:21:34;0.70;;;0.70;;
10902;SDS011;5504;47.312;11.060;2024-03-02T12:24:01;1.25;;;1.00;;
10902;SDS011;5504;47.312;11.060;2024-03-02T12:26:27;0.68;;;0.68;;
10902;SDS011;5504;47.312;11.060;2024-03-02T12:28:54;1.10;;;1.00;;
10902;SDS011;5504;47.312;11.060;2024-03-02T12:31:20;1.10;;;1.00;;
10902;SDS011;5504;47.312;11.060;2024-03-02T12:33:46;0.80;;;0.80;;
10902;SDS011;5504;47.312;11.060;2024-03-02T12:36:13;1.20;;;0.90;;
10902;SDS011;5504;47.312;11.060;2024-03-02T12:38:43;1.33;;;0.88;;
10902;SDS011;5504;47.312;11.060;2024-03-02T12:41:09;1.35;;;0.90;;
10902;SDS011;5504;47.312;11.060;2024-03-02T12:43:35;1.52;;;1.00;;
10902;SDS011;5504;47.312;11.060;2024-03-02T12:46:00;1.60;;;1.02;;
10902;SDS011;5504;47.312;11.060;2024-03-02T12:48:27;1.27;;;0.95;;
10902;SDS011;5504;47.312;11.060;2024-03-02T12:50:53;1.75;;;1.02;;
10902;SDS011;5504;47.312;11.060;2024-03-02T12:53:21;1.85;;;1.00;;
10902;SDS011;5504;47.312;11.060;2024-03-02T12:55:46;1.85;;;1.08;;
10902;SDS011;5504;47.312;11.060;2024-03-02T12:58:18;1.55;;;1.30;;
10902;SDS011;5504;47.312;11.060;2024-03-02T13:00:46;1.75;;;1.08;;
10902;SDS011;5504;47.312;11.060;2024-03-02T13:03:12;1.52;;;1.00;;
10902;SDS011;5504;47.312;11.060;2024-03-02T13:05:39;1.50;;;1.00;;
10902;SDS011;5504;47.312;11.060;2024-03-02T13:08:06;1.33;;;1.08;;
10902;SDS011;5504;47.312;11.060;2024-03-02T13:10:33;1.60;;;1.10;;
10902;SDS011;5504;47.312;11.060;2024-03-02T13:12:58;2.08;;;0.90;;
10902;SDS011;5504;47.312;11.060;2024-03-02T13:15:26;1.08;;;0.98;;
10902;SDS011;5504;47.312;11.060;2024-03-02T13:17:52;2.08;;;0.90;;
10902;SDS011;5504;47.312;11.060;2024-03-02T13:20:18;1.10;;;0.88;;
10902;SDS011;5504;47.312;11.060;2024-03-02T13:22:45;1.55;;;1.00;;
10902;SDS011;5504;47.312;11.060;2024-03-02T13:25:10;0.98;;;0.80;;
10902;SDS011;5504;47.312;11.060;2024-03-02T13:27:36;1.23;;;0.80;;
10902;SDS011;5504;47.312;11.060;2024-03-02T13:30:02;1.55;;;0.90;;
10902;SDS011;5504;47.312;11.060;2024-03-02T13:32:30;1.63;;;0.80;;
10902;SDS011;5504;47.312;11.060;2024-03-02T13:34:57;0.68;;;0.50;;
10902;SDS011;5504;47.312;11.060;2024-03-02T13:37:23;1.00;;;0.90;;
10902;SDS011;5504;47.312;11.060;2024-03-02T13:39:49;1.00;;;0.70;;
10902;SDS011;5504;47.312;11.060;2024-03-02T13:42:14;1.85;;;0.80;;
10902;SDS011;5504;47.312;11.060;2024-03-02T13:44:41;0.95;;;0.88;;
10902;SDS011;5504;47.312;11.060;2024-03-02T13:47:10;1.48;;;0.75;;
10902;SDS011;5504;47.312;11.060;2024-03-02T13:49:36;1.30;;;0.80;;
10902;SDS011;5504;47.312;11.060;2024-03-02T13:52:03;0.50;;;0.50;;
10902;SDS011;5504;47.312;11.060;2024-03-02T13:54:40;0.65;;;0.60;;
10902;SDS011;5504;47.312;11.060;2024-03-02T13:57:07;0.77;;;0.70;;
10902;SDS011;5504;47.312;11.060;2024-03-02T13:59:33;1.05;;;0.70;;
10902;SDS011;5504;47.312;11.060;2024-03-02T14:02:02;0.75;;;0.70;;
10902;SDS011;5504;47.312;11.060;2024-03-02T14:04:32;0.90;;;0.80;;
10902;SDS011;5504;47.312;11.060;2024-03-02T14:06:59;2.38;;;0.98;;
10902;SDS011;5504;47.312;11.060;2024-03-02T14:09:25;0.50;;;0.50;;
10902;SDS011;5504;47.312;11.060;2024-03-02T14:11:52;0.60;;;0.60;;
10902;SDS011;5504;47.312;11.060;2024-03-02T14:14:19;0.60;;;0.60;;
10902;SDS011;5504;47.312;11.060;2024-03-02T14:16:45;0.50;;;0.50;;
10902;SDS011;5504;47.312;11.060;2024-03-02T14:19:11;0.50;;;0.50;;
10902;SDS011;5504;47.312;11.060;2024-03-02T14:21:37;0.98;;;0.55;;
10902;SDS011;5504;47.312;11.060;2024-03-02T14:24:04;0.82;;;0.40;;
10902;SDS011;5504;47.312;11.060;2024-03-02T14:26:30;0.52;;;0.40;;
10902;SDS011;5504;47.312;11.060;2024-03-02T14:28:56;0.70;;;0.70;;
10902;SDS011;5504;47.312;11.060;2024-03-02T14:31:21;0.70;;;0.70;;
10902;SDS011;5504;47.312;11.060;2024-03-02T14:33:47;2.22;;;0.60;;
10902;SDS011;5504;47.312;11.060;2024-03-02T14:36:13;1.23;;;0.90;;
10902;SDS011;5504;47.312;11.060;2024-03-02T14:38:39;1.07;;;0.90;;
10902;SDS011;5504;47.312;11.060;2024-03-02T14:41:05;1.97;;;0.70;;
10902;SDS011;5504;47.312;11.060;2024-03-02T14:43:30;3.60;;;3.30;;